METAR Data
IDs: Format: Raw Decoded Include TAF

Data at: 2239 UTC 02 Aug 2021

KSMF 022153Z 25004KT 10SM FEW080 FEW250 32/06 A3001 RMK AO2 SLP160 T03220061
KSMF 022053Z VRB03KT 10SM FEW080 FEW250 31/06 A3003 RMK AO2 SLP167 T03060061 58013
KSMF 021953Z VRB05KT 10SM FEW080 FEW250 29/08 A3004 RMK AO2 SLP173 T02890083
KSMF 021853Z 19007KT 10SM FEW070 FEW250 27/08 A3006 RMK AO2 SLP178 T02670083
KSMF 021753Z 18008KT 10SM FEW250 24/09 A3007 RMK AO2 SLP180 T02440089 10244 20161 50003
KSMF 021653Z 18011KT 10SM FEW250 22/09 A3007 RMK AO2 SLP181 T02220094
KSMF 021553Z 17012KT 10SM FEW250 19/09 A3007 RMK AO2 SLP181 T01940094
KSMF 021453Z 18010KT 10SM FEW220 17/10 A3006 RMK AO2 SLP177 T01720100 51018
KSMF 021353Z 17009KT 10SM FEW200 16/10 A3004 RMK AO2 SLP172 T01610100
KSMF 021253Z COR 17009KT 10SM FEW170 17/09 A3002 RMK AO2 SLP165 T01670094
KSMF 021153Z 15008KT 10SM CLR 17/09 A3000 RMK AO2 SLP159 T01720094 10200 20172 53004
KSMF 021053Z 15010KT 10SM CLR 18/09 A3000 RMK AO2 SLP157 T01830089
KSMF 020953Z 15008KT 10SM CLR 18/09 A3000 RMK AO2 SLP157 T01830089
KSMF 020853Z 16009KT 10SM CLR 18/09 A2999 RMK AO2 SLP155 T01830094 50005
KSMF 020753Z 15009KT 10SM CLR 18/11 A2999 RMK AO2 SLP156 T01830106 403610161
KSMF 020653Z 15009KT 10SM CLR 19/11 A2999 RMK AO2 SLP154 T01940106
KSMF 020553Z 17010KT 10SM FEW250 20/11 A2998 RMK AO2 SLP150 T02000111 10361 20200 51019
KSMF 020453Z 17013KT 10SM FEW250 22/12 A2997 RMK AO2 SLP147 T02170117
KSMF 020353Z 18011KT 10SM FEW250 24/12 A2994 RMK AO2 SLP139 T02390122
KSMF 020253Z 18012KT 10SM CLR 28/12 A2992 RMK AO2 SLP131 T02830122 53003
KSMF 020153Z 18012KT 10SM CLR 33/11 A2991 RMK AO2 SLP127 T03280106
KSMF 020053Z 18009KT 10SM CLR 35/08 A2991 RMK AO2 SLP128 T03500078
KSMF 012353Z 19008KT 10SM CLR 36/09 A2991 RMK AO2 SLP128 T03610094 10361 20244 56017
KSMF 012253Z 20007KT 10SM CLR 35/12 A2993 RMK AO2 SLP133 T03500117
KSMF 012153Z 20007KT 10SM CLR 34/14 A2995 RMK AO2 SLP140 T03440144
KSMF 012053Z 24007KT 10SM CLR 33/13 A2996 RMK AO2 SLP145 T03280133 58016
KSMF 011953Z 00000KT 10SM CLR 30/14 A2998 RMK AO2 SLP152 T03000139
KSMF 011853Z 24006KT 10SM CLR 28/13 A3000 RMK AO2 SLP157 T02780133
KSMF 011753Z VRB05KT 10SM CLR 24/13 A3001 RMK AO2 SLP161 T02440128 10244 20161 50005
KSMF 011653Z 17006KT 10SM CLR 22/12 A3001 RMK AO2 SLP162 T02220122
KSMF 011553Z 16005KT 10SM CLR 19/12 A3001 RMK AO2 SLP161 T01940122
KSMF 011453Z 16006KT 10SM CLR 17/12 A2999 RMK AO2 SLP156 T01720117 53012
KSMF 011353Z 17007KT 10SM CLR 16/12 A2998 RMK AO2 SLP150 T01610117
KSMF 011253Z 16008KT 10SM CLR 17/11 A2997 RMK AO2 SLP146 T01670111
KSMF 011153Z 14007KT 10SM CLR 17/11 A2996 RMK AO2 SLP144 T01720111 10222 20172 53003
KSMF 011053Z 15009KT 10SM CLR 17/12 A2995 RMK AO2 SLP142 T01720117